createdAt,value
2022-07-27T00:02:25.349Z,16.20
2022-07-27T00:08:27.854Z,16.20
2022-07-27T00:14:29.877Z,16.20
2022-07-27T00:20:32.843Z,16.20
2022-07-27T00:26:34.918Z,16.10
2022-07-27T00:32:36.898Z,16.10
2022-07-27T00:38:39.018Z,16.10
2022-07-27T00:44:41.467Z,16.10
2022-07-27T00:50:46.113Z,16.10
2022-07-27T00:56:49.335Z,16.10
2022-07-27T01:02:51.725Z,16.10
2022-07-27T01:09:14.988Z,16.10
2022-07-27T01:15:17.784Z,15.90
2022-07-27T01:21:20.615Z,15.80
2022-07-27T01:27:22.638Z,15.70
2022-07-27T01:33:27.366Z,15.60
2022-07-27T01:39:30.530Z,15.60
2022-07-27T01:45:32.613Z,15.50
2022-07-27T01:51:34.590Z,15.40
2022-07-27T01:57:38.200Z,15.20
2022-07-27T02:03:40.287Z,15.10
2022-07-27T02:09:42.274Z,15.00
2022-07-27T02:15:44.541Z,15.00
2022-07-27T02:21:46.750Z,14.90
2022-07-27T02:27:49.717Z,14.80
2022-07-27T02:33:51.679Z,14.60
2022-07-27T02:39:54.562Z,14.60
2022-07-27T02:45:56.665Z,14.50
2022-07-27T02:51:58.936Z,14.40
2022-07-27T02:58:01.722Z,14.30
2022-07-27T03:04:04.301Z,14.20
2022-07-27T03:10:07.498Z,14.00
2022-07-27T03:16:09.740Z,14.00
2022-07-27T03:22:11.788Z,13.90
2022-07-27T03:28:13.827Z,13.80
2022-07-27T03:34:15.838Z,13.60
2022-07-27T03:40:18.142Z,13.60
2022-07-27T03:46:20.161Z,13.50
2022-07-27T03:52:22.200Z,13.40
2022-07-27T03:58:24.383Z,13.50
2022-07-27T04:04:26.332Z,13.50
2022-07-27T04:10:31.533Z,13.50
2022-07-27T04:16:36.227Z,13.50
2022-07-27T04:22:38.432Z,13.70
2022-07-27T04:28:40.399Z,13.80
2022-07-27T04:34:42.339Z,13.90
2022-07-27T04:40:44.353Z,14.10
2022-07-27T04:46:46.440Z,14.20
2022-07-27T04:52:49.231Z,14.30
2022-07-27T04:58:51.199Z,14.40
2022-07-27T05:04:53.175Z,14.60
2022-07-27T05:10:55.187Z,14.60
2022-07-27T05:16:57.281Z,14.60
2022-07-27T05:22:59.658Z,14.70
2022-07-27T05:29:01.611Z,14.80
2022-07-27T05:35:04.791Z,14.70
2022-07-27T05:41:10.209Z,14.80
2022-07-27T05:47:12.200Z,15.10
2022-07-27T05:53:14.182Z,15.60
2022-07-27T05:59:16.331Z,15.80
2022-07-27T06:05:18.376Z,16.00
2022-07-27T06:11:20.429Z,16.40
2022-07-27T06:17:22.385Z,16.20
2022-07-27T06:23:24.571Z,16.40
2022-07-27T06:29:26.651Z,16.60
2022-07-27T06:35:28.672Z,16.70
2022-07-27T06:41:31.037Z,16.90
2022-07-27T06:47:33.476Z,17.00
2022-07-27T06:53:37.430Z,17.20
2022-07-27T06:59:43.325Z,17.40
2022-07-27T07:05:47.147Z,17.50
2022-07-27T07:11:49.121Z,17.80
2022-07-27T07:17:51.175Z,18.20
2022-07-27T07:23:53.175Z,17.90
2022-07-27T07:29:55.342Z,18.10
2022-07-27T07:36:12.550Z,18.30
2022-07-27T07:42:16.570Z,18.80
2022-07-27T07:48:20.678Z,18.90
2022-07-27T07:54:22.784Z,19.50
2022-07-27T08:00:26.111Z,19.80
2022-07-27T08:06:28.518Z,20.70
2022-07-27T08:12:30.530Z,20.40
2022-07-27T08:18:32.859Z,19.50
2022-07-27T08:24:34.888Z,19.50
2022-07-27T08:30:37.035Z,19.10
2022-07-27T08:36:41.642Z,19.10
2022-07-27T08:42:44.039Z,19.80
2022-07-27T08:48:49.813Z,20.70
2022-07-27T08:54:52.328Z,21.50
2022-07-27T09:00:54.577Z,22.00
2022-07-27T09:06:56.648Z,21.20
2022-07-27T09:12:59.136Z,19.90
2022-07-27T09:19:05.652Z,20.00
2022-07-27T09:25:12.574Z,20.30
2022-07-27T09:31:16.640Z,20.90
2022-07-27T09:37:28.020Z,21.30
2022-07-27T09:49:53.731Z,20.30
2022-07-27T09:56:10.701Z,21.00
2022-07-27T10:02:16.748Z,21.90
2022-07-27T10:08:20.288Z,21.70
2022-07-27T10:14:22.232Z,21.20
2022-07-27T10:20:24.414Z,21.10
2022-07-27T10:26:26.252Z,21.90
2022-07-27T10:32:31.508Z,22.00
2022-07-27T10:38:37.493Z,22.10
2022-07-27T10:44:58.653Z,21.80
2022-07-27T10:51:00.784Z,21.80
2022-07-27T10:57:08.394Z,22.00
2022-07-27T11:03:19.443Z,22.50
2022-07-27T11:10:02.574Z,21.90
2022-07-27T11:16:25.732Z,22.00
2022-07-27T11:29:06.704Z,23.50
2022-07-27T11:35:19.825Z,25.40
2022-07-27T11:42:03.175Z,25.50
2022-07-27T11:47:58.813Z,23.90
2022-07-27T11:54:09.023Z,22.50
2022-07-27T12:00:12.122Z,22.00
2022-07-27T12:06:14.330Z,23.90
2022-07-27T12:12:21.843Z,25.30
2022-07-27T12:18:24.026Z,24.60
2022-07-27T12:24:38.666Z,23.90
2022-07-27T12:30:52.187Z,23.10
2022-07-27T12:36:54.314Z,22.80
2022-07-27T12:43:05.556Z,22.70
2022-07-27T12:49:16.205Z,22.50
2022-07-27T12:55:21.283Z,25.10
2022-07-27T13:01:23.353Z,25.10
2022-07-27T13:07:26.174Z,24.40
2022-07-27T13:13:28.408Z,23.60
2022-07-27T13:19:30.879Z,23.90
2022-07-27T13:25:32.985Z,23.00
2022-07-27T13:31:35.637Z,22.10
2022-07-27T13:37:37.773Z,23.00
2022-07-27T13:43:39.853Z,23.60
2022-07-27T13:49:41.846Z,24.10
2022-07-27T13:55:45.093Z,23.90
2022-07-27T14:01:47.430Z,24.20
2022-07-27T14:07:51.541Z,24.20
2022-07-27T14:13:53.676Z,25.80
2022-07-27T14:19:55.700Z,27.30
2022-07-27T14:25:59.346Z,29.50
2022-07-27T14:32:01.939Z,28.90
2022-07-27T14:38:04.455Z,27.50
2022-07-27T14:44:07.786Z,25.80
2022-07-27T14:50:10.201Z,25.80
2022-07-27T14:56:12.268Z,27.70
2022-07-27T15:02:14.357Z,28.30
2022-07-27T15:08:16.386Z,26.80
2022-07-27T15:14:18.436Z,24.90
2022-07-27T15:20:20.565Z,24.20
2022-07-27T15:26:22.722Z,24.40
2022-07-27T15:32:25.075Z,27.30
2022-07-27T15:38:28.725Z,28.20
2022-07-27T15:44:30.838Z,27.00
2022-07-27T15:50:32.891Z,25.40
2022-07-27T15:56:34.886Z,24.30
2022-07-27T16:02:37.029Z,23.80
2022-07-27T16:08:39.324Z,23.20
2022-07-27T16:14:41.381Z,23.60
2022-07-27T16:20:46.287Z,23.80
2022-07-27T16:26:48.336Z,24.20
2022-07-27T16:32:50.463Z,24.10
2022-07-27T16:38:53.153Z,23.20
2022-07-27T16:44:55.175Z,22.90
2022-07-27T16:50:57.831Z,22.80
2022-07-27T16:56:59.897Z,22.50
2022-07-27T17:03:01.944Z,22.20
2022-07-27T17:09:04.344Z,21.70
2022-07-27T17:15:07.757Z,21.60
2022-07-27T17:21:12.761Z,21.40
2022-07-27T17:27:15.090Z,22.00
2022-07-27T17:33:17.373Z,23.60
2022-07-27T17:39:19.467Z,23.90
2022-07-27T17:45:21.615Z,23.40
2022-07-27T17:51:25.302Z,24.10
2022-07-27T17:57:28.224Z,26.70
2022-07-27T18:03:33.710Z,27.20
2022-07-27T18:09:35.829Z,27.20
2022-07-27T18:15:47.042Z,27.00
2022-07-27T18:21:49.268Z,25.00
2022-07-27T18:27:51.663Z,25.30
2022-07-27T18:33:55.123Z,25.80
2022-07-27T18:39:57.252Z,26.10
2022-07-27T18:45:59.542Z,25.60
2022-07-27T18:52:01.708Z,24.20
2022-07-27T18:58:04.984Z,21.80
2022-07-27T19:04:07.461Z,20.60
2022-07-27T19:10:10.882Z,19.70
2022-07-27T19:16:13.302Z,19.10
2022-07-27T19:22:15.797Z,18.70
2022-07-27T19:28:20.486Z,18.20
2022-07-27T19:34:22.995Z,17.80
2022-07-27T19:40:45.115Z,17.50
2022-07-27T19:46:47.829Z,17.30
2022-07-27T19:52:49.906Z,17.00
2022-07-27T19:58:51.921Z,16.70
2022-07-27T20:04:54.216Z,16.30
2022-07-27T20:10:56.475Z,16.10
2022-07-27T20:16:58.866Z,16.00
2022-07-27T20:23:00.924Z,15.80
2022-07-27T20:29:03.000Z,15.60
2022-07-27T20:35:05.817Z,15.40
2022-07-27T20:41:07.773Z,15.20
2022-07-27T20:47:10.148Z,15.00
2022-07-27T20:53:12.222Z,15.10
2022-07-27T20:59:16.907Z,15.10
2022-07-27T21:05:21.565Z,15.00
2022-07-27T21:11:23.768Z,14.90
2022-07-27T21:17:25.831Z,14.80
2022-07-27T21:23:46.681Z,14.70
2022-07-27T21:29:49.026Z,14.50
2022-07-27T21:35:51.154Z,14.40
2022-07-27T21:41:55.196Z,14.20
2022-07-27T21:48:00.570Z,14.00
2022-07-27T21:54:02.679Z,13.90
2022-07-27T22:00:06.923Z,13.80
2022-07-27T22:06:09.130Z,13.70
2022-07-27T22:12:11.540Z,13.70
2022-07-27T22:18:13.562Z,13.70
2022-07-27T22:24:16.095Z,13.70
2022-07-27T22:30:18.535Z,13.70
2022-07-27T22:36:20.673Z,13.70
2022-07-27T22:42:22.685Z,13.60
2022-07-27T22:48:24.687Z,13.60
2022-07-27T22:54:26.651Z,13.70
2022-07-27T23:00:29.579Z,13.70
2022-07-27T23:06:31.601Z,13.50
2022-07-27T23:12:33.624Z,13.30
2022-07-27T23:18:35.595Z,13.20
2022-07-27T23:24:37.621Z,13.30
2022-07-27T23:30:43.709Z,13.30
2022-07-27T23:36:45.711Z,13.40
2022-07-27T23:42:47.980Z,13.40
2022-07-27T23:48:49.993Z,13.40
2022-07-27T23:54:52.017Z,13.30
